sensor_id;sensor_type;location;lat;lon;timestamp;P1;durP1;ratioP1;P2;durP2;ratioP2
80536;SDS011;69867;47.074;15.404;2023-10-09T00:01:30;2.92;;;0.60;;
80536;SDS011;69867;47.074;15.404;2023-10-09T00:03:55;4.13;;;0.95;;
80536;SDS011;69867;47.074;15.404;2023-10-09T00:06:21;2.47;;;0.70;;
80536;SDS011;69867;47.074;15.404;2023-10-09T00:08:47;1.92;;;0.60;;
80536;SDS011;69867;47.074;15.404;2023-10-09T00:11:12;3.08;;;1.15;;
80536;SDS011;69867;47.074;15.404;2023-10-09T00:13:38;3.67;;;0.90;;
80536;SDS011;69867;47.074;15.404;2023-10-09T00:16:06;3.60;;;0.80;;
80536;SDS011;69867;47.074;15.404;2023-10-09T00:18:31;3.15;;;0.75;;
80536;SDS011;69867;47.074;15.404;2023-10-09T00:20:56;2.35;;;1.00;;
80536;SDS011;69867;47.074;15.404;2023-10-09T00:23:22;4.75;;;1.67;;
80536;SDS011;69867;47.074;15.404;2023-10-09T00:25:51;1.90;;;0.80;;
80536;SDS011;69867;47.074;15.404;2023-10-09T00:28:16;3.88;;;0.85;;
80536;SDS011;69867;47.074;15.404;2023-10-09T00:30:42;2.53;;;0.60;;
80536;SDS011;69867;47.074;15.404;2023-10-09T00:33:07;3.05;;;1.02;;
80536;SDS011;69867;47.074;15.404;2023-10-09T00:35:36;2.35;;;0.93;;
80536;SDS011;69867;47.074;15.404;2023-10-09T00:38:02;3.22;;;0.70;;
80536;SDS011;69867;47.074;15.404;2023-10-09T00:40:31;2.92;;;0.90;;
80536;SDS011;69867;47.074;15.404;2023-10-09T00:42:58;3.35;;;0.90;;
80536;SDS011;69867;47.074;15.404;2023-10-09T00:45:24;3.00;;;1.08;;
80536;SDS011;69867;47.074;15.404;2023-10-09T00:47:50;3.00;;;1.00;;
80536;SDS011;69867;47.074;15.404;2023-10-09T00:50:16;3.70;;;1.13;;
80536;SDS011;69867;47.074;15.404;2023-10-09T00:52:46;3.90;;;0.80;;
80536;SDS011;69867;47.074;15.404;2023-10-09T00:55:15;3.25;;;1.00;;
80536;SDS011;69867;47.074;15.404;2023-10-09T00:57:46;3.40;;;0.75;;
80536;SDS011;69867;47.074;15.404;2023-10-09T01:00:13;2.45;;;0.75;;
80536;SDS011;69867;47.074;15.404;2023-10-09T01:02:38;3.30;;;1.08;;
80536;SDS011;69867;47.074;15.404;2023-10-09T01:05:04;2.55;;;0.85;;
80536;SDS011;69867;47.074;15.404;2023-10-09T01:07:29;3.60;;;0.90;;
80536;SDS011;69867;47.074;15.404;2023-10-09T01:09:55;3.92;;;1.33;;
80536;SDS011;69867;47.074;15.404;2023-10-09T01:12:20;2.35;;;0.80;;
80536;SDS011;69867;47.074;15.404;2023-10-09T01:14:46;2.80;;;1.00;;
80536;SDS011;69867;47.074;15.404;2023-10-09T01:17:11;4.55;;;1.02;;
80536;SDS011;69867;47.074;15.404;2023-10-09T01:19:38;2.70;;;1.10;;
80536;SDS011;69867;47.074;15.404;2023-10-09T01:22:03;3.83;;;1.25;;
80536;SDS011;69867;47.074;15.404;2023-10-09T01:24:29;3.22;;;0.98;;
80536;SDS011;69867;47.074;15.404;2023-10-09T01:26:54;3.65;;;1.00;;
80536;SDS011;69867;47.074;15.404;2023-10-09T01:29:20;3.45;;;0.80;;
80536;SDS011;69867;47.074;15.404;2023-10-09T01:31:47;4.85;;;1.50;;
80536;SDS011;69867;47.074;15.404;2023-10-09T01:34:12;3.50;;;1.02;;
80536;SDS011;69867;47.074;15.404;2023-10-09T01:36:38;2.95;;;0.95;;
80536;SDS011;69867;47.074;15.404;2023-10-09T01:39:04;2.75;;;0.95;;
80536;SDS011;69867;47.074;15.404;2023-10-09T01:41:29;4.75;;;0.80;;
80536;SDS011;69867;47.074;15.404;2023-10-09T01:43:55;2.45;;;0.75;;
80536;SDS011;69867;47.074;15.404;2023-10-09T01:46:20;4.22;;;0.73;;
80536;SDS011;69867;47.074;15.404;2023-10-09T01:48:45;4.03;;;1.15;;
80536;SDS011;69867;47.074;15.404;2023-10-09T01:51:14;2.50;;;0.80;;
80536;SDS011;69867;47.074;15.404;2023-10-09T01:53:39;4.03;;;1.02;;
80536;SDS011;69867;47.074;15.404;2023-10-09T01:56:09;3.20;;;0.73;;
80536;SDS011;69867;47.074;15.404;2023-10-09T01:58:35;4.88;;;1.27;;
80536;SDS011;69867;47.074;15.404;2023-10-09T02:01:00;3.45;;;0.90;;
80536;SDS011;69867;47.074;15.404;2023-10-09T02:03:26;3.08;;;0.73;;
80536;SDS011;69867;47.074;15.404;2023-10-09T02:05:52;2.75;;;0.90;;
80536;SDS011;69867;47.074;15.404;2023-10-09T02:08:18;4.53;;;1.23;;
80536;SDS011;69867;47.074;15.404;2023-10-09T02:10:43;3.33;;;0.85;;
80536;SDS011;69867;47.074;15.404;2023-10-09T02:13:09;3.85;;;1.20;;
80536;SDS011;69867;47.074;15.404;2023-10-09T02:15:35;3.55;;;1.10;;
80536;SDS011;69867;47.074;15.404;2023-10-09T02:18:01;4.30;;;1.23;;
80536;SDS011;69867;47.074;15.404;2023-10-09T02:20:27;3.90;;;1.10;;
80536;SDS011;69867;47.074;15.404;2023-10-09T02:22:52;4.32;;;1.17;;
80536;SDS011;69867;47.074;15.404;2023-10-09T02:25:17;5.03;;;1.10;;
80536;SDS011;69867;47.074;15.404;2023-10-09T02:27:43;2.30;;;0.82;;
80536;SDS011;69867;47.074;15.404;2023-10-09T02:30:08;3.53;;;1.45;;
80536;SDS011;69867;47.074;15.404;2023-10-09T02:32:34;4.10;;;0.98;;
80536;SDS011;69867;47.074;15.404;2023-10-09T02:35:00;5.53;;;1.48;;
80536;SDS011;69867;47.074;15.404;2023-10-09T02:37:26;3.38;;;1.38;;
80536;SDS011;69867;47.074;15.404;2023-10-09T02:39:52;3.83;;;1.30;;
80536;SDS011;69867;47.074;15.404;2023-10-09T02:42:17;4.20;;;1.13;;
80536;SDS011;69867;47.074;15.404;2023-10-09T02:44:43;7.63;;;1.55;;
80536;SDS011;69867;47.074;15.404;2023-10-09T02:47:08;4.05;;;1.45;;
80536;SDS011;69867;47.074;15.404;2023-10-09T02:49:33;5.20;;;1.58;;
80536;SDS011;69867;47.074;15.404;2023-10-09T02:51:59;2.63;;;1.10;;
80536;SDS011;69867;47.074;15.404;2023-10-09T02:54:24;4.97;;;2.15;;
80536;SDS011;69867;47.074;15.404;2023-10-09T02:56:50;6.03;;;2.03;;
80536;SDS011;69867;47.074;15.404;2023-10-09T02:59:17;5.65;;;1.75;;
80536;SDS011;69867;47.074;15.404;2023-10-09T03:01:42;3.40;;;1.63;;
80536;SDS011;69867;47.074;15.404;2023-10-09T03:04:07;4.35;;;1.83;;
80536;SDS011;69867;47.074;15.404;2023-10-09T03:06:33;5.65;;;1.80;;
80536;SDS011;69867;47.074;15.404;2023-10-09T03:08:58;6.28;;;1.70;;
80536;SDS011;69867;47.074;15.404;2023-10-09T03:11:24;3.83;;;1.42;;
80536;SDS011;69867;47.074;15.404;2023-10-09T03:13:49;3.08;;;1.20;;
80536;SDS011;69867;47.074;15.404;2023-10-09T03:16:15;4.15;;;1.50;;
80536;SDS011;69867;47.074;15.404;2023-10-09T03:18:40;5.75;;;1.38;;
80536;SDS011;69867;47.074;15.404;2023-10-09T03:21:05;7.90;;;2.00;;
80536;SDS011;69867;47.074;15.404;2023-10-09T03:23:31;3.67;;;1.30;;
80536;SDS011;69867;47.074;15.404;2023-10-09T03:25:56;5.00;;;1.30;;
80536;SDS011;69867;47.074;15.404;2023-10-09T03:28:21;3.78;;;1.63;;
80536;SDS011;69867;47.074;15.404;2023-10-09T03:30:47;3.33;;;1.60;;
80536;SDS011;69867;47.074;15.404;2023-10-09T03:33:13;4.03;;;1.33;;
80536;SDS011;69867;47.074;15.404;2023-10-09T03:35:38;3.13;;;1.20;;
80536;SDS011;69867;47.074;15.404;2023-10-09T03:38:04;12.52;;;1.50;;
80536;SDS011;69867;47.074;15.404;2023-10-09T03:40:29;3.67;;;1.27;;
80536;SDS011;69867;47.074;15.404;2023-10-09T03:42:54;5.15;;;1.80;;
80536;SDS011;69867;47.074;15.404;2023-10-09T03:45:20;4.03;;;1.15;;
80536;SDS011;69867;47.074;15.404;2023-10-09T03:47:45;4.75;;;1.50;;
80536;SDS011;69867;47.074;15.404;2023-10-09T03:50:10;3.65;;;1.30;;
80536;SDS011;69867;47.074;15.404;2023-10-09T03:52:36;3.28;;;1.50;;
80536;SDS011;69867;47.074;15.404;2023-10-09T03:55:01;2.72;;;1.20;;
80536;SDS011;69867;47.074;15.404;2023-10-09T03:57:26;3.28;;;0.80;;
80536;SDS011;69867;47.074;15.404;2023-10-09T03:59:52;4.13;;;1.20;;
80536;SDS011;69867;47.074;15.404;2023-10-09T04:02:17;2.53;;;1.17;;
80536;SDS011;69867;47.074;15.404;2023-10-09T04:04:43;2.95;;;0.90;;
80536;SDS011;69867;47.074;15.404;2023-10-09T04:07:08;4.32;;;0.98;;
80536;SDS011;69867;47.074;15.404;2023-10-09T04:09:34;4.38;;;1.08;;
80536;SDS011;69867;47.074;15.404;2023-10-09T04:11:59;3.00;;;0.70;;
80536;SDS011;69867;47.074;15.404;2023-10-09T04:14:24;2.90;;;0.80;;
80536;SDS011;69867;47.074;15.404;2023-10-09T04:16:50;2.88;;;0.90;;
80536;SDS011;69867;47.074;15.404;2023-10-09T04:19:15;4.15;;;1.08;;
80536;SDS011;69867;47.074;15.404;2023-10-09T04:21:40;2.92;;;0.82;;
80536;SDS011;69867;47.074;15.404;2023-10-09T04:24:06;2.50;;;0.90;;
80536;SDS011;69867;47.074;15.404;2023-10-09T04:26:32;3.33;;;1.10;;
80536;SDS011;69867;47.074;15.404;2023-10-09T04:28:58;3.42;;;1.00;;
80536;SDS011;69867;47.074;15.404;2023-10-09T04:31:23;2.78;;;1.10;;
80536;SDS011;69867;47.074;15.404;2023-10-09T04:33:48;2.60;;;1.00;;
80536;SDS011;69867;47.074;15.404;2023-10-09T04:36:14;2.35;;;0.98;;
80536;SDS011;69867;47.074;15.404;2023-10-09T04:38:39;3.03;;;1.15;;
80536;SDS011;69867;47.074;15.404;2023-10-09T04:41:05;3.15;;;0.90;;
80536;SDS011;69867;47.074;15.404;2023-10-09T04:43:31;4.72;;;1.50;;
80536;SDS011;69867;47.074;15.404;2023-10-09T04:45:57;2.85;;;1.15;;
80536;SDS011;69867;47.074;15.404;2023-10-09T04:48:23;3.88;;;1.20;;
80536;SDS011;69867;47.074;15.404;2023-10-09T04:50:49;3.05;;;1.33;;
80536;SDS011;69867;47.074;15.404;2023-10-09T04:53:15;2.75;;;0.90;;
80536;SDS011;69867;47.074;15.404;2023-10-09T04:55:40;3.58;;;1.30;;
80536;SDS011;69867;47.074;15.404;2023-10-09T04:58:06;3.88;;;1.48;;
80536;SDS011;69867;47.074;15.404;2023-10-09T05:00:31;4.53;;;1.20;;
80536;SDS011;69867;47.074;15.404;2023-10-09T05:02:57;3.40;;;1.25;;
80536;SDS011;69867;47.074;15.404;2023-10-09T05:05:24;4.40;;;1.73;;
80536;SDS011;69867;47.074;15.404;2023-10-09T05:07:51;3.95;;;0.98;;
80536;SDS011;69867;47.074;15.404;2023-10-09T05:10:16;3.65;;;1.00;;
80536;SDS011;69867;47.074;15.404;2023-10-09T05:12:41;3.10;;;1.13;;
80536;SDS011;69867;47.074;15.404;2023-10-09T05:15:07;2.63;;;1.30;;
80536;SDS011;69867;47.074;15.404;2023-10-09T05:17:33;2.65;;;1.27;;
80536;SDS011;69867;47.074;15.404;2023-10-09T05:19:58;4.40;;;1.05;;
80536;SDS011;69867;47.074;15.404;2023-10-09T05:22:23;5.28;;;1.25;;
80536;SDS011;69867;47.074;15.404;2023-10-09T05:24:49;6.28;;;1.40;;
80536;SDS011;69867;47.074;15.404;2023-10-09T05:27:14;3.63;;;1.45;;
80536;SDS011;69867;47.074;15.404;2023-10-09T05:29:39;3.45;;;1.60;;
80536;SDS011;69867;47.074;15.404;2023-10-09T05:32:05;3.47;;;1.40;;
80536;SDS011;69867;47.074;15.404;2023-10-09T05:34:31;3.17;;;1.50;;
80536;SDS011;69867;47.074;15.404;2023-10-09T05:36:57;4.43;;;1.65;;
80536;SDS011;69867;47.074;15.404;2023-10-09T05:39:22;4.90;;;1.65;;
80536;SDS011;69867;47.074;15.404;2023-10-09T05:41:47;3.45;;;1.27;;
80536;SDS011;69867;47.074;15.404;2023-10-09T05:44:13;4.53;;;1.77;;
80536;SDS011;69867;47.074;15.404;2023-10-09T05:46:39;3.85;;;1.38;;
80536;SDS011;69867;47.074;15.404;2023-10-09T05:49:04;4.65;;;1.50;;
80536;SDS011;69867;47.074;15.404;2023-10-09T05:51:29;5.97;;;1.50;;
80536;SDS011;69867;47.074;15.404;2023-10-09T05:53:55;3.42;;;1.35;;
80536;SDS011;69867;47.074;15.404;2023-10-09T05:56:20;4.07;;;1.33;;
80536;SDS011;69867;47.074;15.404;2023-10-09T05:58:45;4.63;;;1.48;;
80536;SDS011;69867;47.074;15.404;2023-10-09T06:01:11;4.20;;;1.63;;
80536;SDS011;69867;47.074;15.404;2023-10-09T06:03:36;3.53;;;1.23;;
80536;SDS011;69867;47.074;15.404;2023-10-09T06:06:01;4.32;;;1.20;;
80536;SDS011;69867;47.074;15.404;2023-10-09T06:08:27;3.55;;;1.15;;
80536;SDS011;69867;47.074;15.404;2023-10-09T06:10:54;4.00;;;1.20;;
80536;SDS011;69867;47.074;15.404;2023-10-09T06:13:19;3.15;;;1.25;;
80536;SDS011;69867;47.074;15.404;2023-10-09T06:15:44;5.75;;;1.50;;
80536;SDS011;69867;47.074;15.404;2023-10-09T06:18:10;3.72;;;1.40;;
80536;SDS011;69867;47.074;15.404;2023-10-09T06:20:35;5.50;;;1.42;;
80536;SDS011;69867;47.074;15.404;2023-10-09T06:23:01;2.72;;;1.00;;
80536;SDS011;69867;47.074;15.404;2023-10-09T06:25:26;4.28;;;1.73;;
80536;SDS011;69867;47.074;15.404;2023-10-09T06:27:51;3.88;;;1.75;;
80536;SDS011;69867;47.074;15.404;2023-10-09T06:30:17;3.70;;;1.40;;
80536;SDS011;69867;47.074;15.404;2023-10-09T06:32:42;3.55;;;1.20;;
80536;SDS011;69867;47.074;15.404;2023-10-09T06:35:08;4.15;;;1.60;;
80536;SDS011;69867;47.074;15.404;2023-10-09T06:37:33;4.97;;;1.52;;
80536;SDS011;69867;47.074;15.404;2023-10-09T06:39:59;4.32;;;2.08;;
80536;SDS011;69867;47.074;15.404;2023-10-09T06:42:24;3.50;;;2.00;;
80536;SDS011;69867;47.074;15.404;2023-10-09T06:44:50;4.82;;;1.35;;
80536;SDS011;69867;47.074;15.404;2023-10-09T06:47:16;4.63;;;1.60;;
80536;SDS011;69867;47.074;15.404;2023-10-09T06:49:41;4.35;;;1.70;;
80536;SDS011;69867;47.074;15.404;2023-10-09T06:52:06;4.05;;;1.90;;
80536;SDS011;69867;47.074;15.404;2023-10-09T06:54:32;5.80;;;2.03;;
80536;SDS011;69867;47.074;15.404;2023-10-09T06:56:57;6.60;;;2.05;;
80536;SDS011;69867;47.074;15.404;2023-10-09T06:59:22;4.30;;;1.83;;
80536;SDS011;69867;47.074;15.404;2023-10-09T07:01:48;4.25;;;1.80;;
80536;SDS011;69867;47.074;15.404;2023-10-09T07:04:14;5.38;;;1.85;;
80536;SDS011;69867;47.074;15.404;2023-10-09T07:06:39;4.97;;;1.65;;
80536;SDS011;69867;47.074;15.404;2023-10-09T07:09:04;4.15;;;1.75;;
80536;SDS011;69867;47.074;15.404;2023-10-09T07:13:58;4.20;;;1.85;;
80536;SDS011;69867;47.074;15.404;2023-10-09T07:16:23;4.80;;;1.98;;
80536;SDS011;69867;47.074;15.404;2023-10-09T07:18:49;4.35;;;1.95;;
80536;SDS011;69867;47.074;15.404;2023-10-09T07:21:14;5.50;;;2.47;;
80536;SDS011;69867;47.074;15.404;2023-10-09T07:23:40;7.05;;;1.92;;
80536;SDS011;69867;47.074;15.404;2023-10-09T07:26:05;6.05;;;2.03;;
80536;SDS011;69867;47.074;15.404;2023-10-09T07:28:30;5.80;;;2.03;;
80536;SDS011;69867;47.074;15.404;2023-10-09T07:30:57;5.13;;;2.10;;
80536;SDS011;69867;47.074;15.404;2023-10-09T07:33:22;5.75;;;2.03;;
80536;SDS011;69867;47.074;15.404;2023-10-09T07:35:47;4.15;;;1.75;;
80536;SDS011;69867;47.074;15.404;2023-10-09T07:40:51;3.90;;;1.48;;
80536;SDS011;69867;47.074;15.404;2023-10-09T07:43:16;6.95;;;1.73;;
80536;SDS011;69867;47.074;15.404;2023-10-09T07:45:42;6.13;;;1.48;;
80536;SDS011;69867;47.074;15.404;2023-10-09T07:48:07;3.28;;;1.55;;
80536;SDS011;69867;47.074;15.404;2023-10-09T07:50:36;4.43;;;1.20;;
80536;SDS011;69867;47.074;15.404;2023-10-09T07:53:02;2.88;;;1.50;;
80536;SDS011;69867;47.074;15.404;2023-10-09T07:55:28;4.05;;;1.33;;
80536;SDS011;69867;47.074;15.404;2023-10-09T07:57:54;2.50;;;0.88;;
80536;SDS011;69867;47.074;15.404;2023-10-09T08:00:19;3.78;;;1.52;;
80536;SDS011;69867;47.074;15.404;2023-10-09T08:02:44;3.70;;;1.50;;
80536;SDS011;69867;47.074;15.404;2023-10-09T08:05:10;4.57;;;1.08;;
80536;SDS011;69867;47.074;15.404;2023-10-09T08:07:35;4.45;;;1.83;;
80536;SDS011;69867;47.074;15.404;2023-10-09T08:10:02;3.95;;;1.90;;
80536;SDS011;69867;47.074;15.404;2023-10-09T08:12:28;6.57;;;1.60;;
80536;SDS011;69867;47.074;15.404;2023-10-09T08:14:56;4.95;;;1.75;;
80536;SDS011;69867;47.074;15.404;2023-10-09T08:17:21;3.70;;;1.48;;
80536;SDS011;69867;47.074;15.404;2023-10-09T08:19:48;3.63;;;1.40;;
80536;SDS011;69867;47.074;15.404;2023-10-09T08:22:14;3.28;;;1.10;;
80536;SDS011;69867;47.074;15.404;2023-10-09T08:24:39;3.22;;;1.42;;
80536;SDS011;69867;47.074;15.404;2023-10-09T08:27:05;3.25;;;1.40;;
80536;SDS011;69867;47.074;15.404;2023-10-09T08:29:30;3.40;;;1.30;;
80536;SDS011;69867;47.074;15.404;2023-10-09T08:31:55;5.28;;;1.02;;
80536;SDS011;69867;47.074;15.404;2023-10-09T08:34:21;3.90;;;1.35;;
80536;SDS011;69867;47.074;15.404;2023-10-09T08:36:46;4.05;;;1.73;;
80536;SDS011;69867;47.074;15.404;2023-10-09T08:39:11;4.80;;;1.30;;
80536;SDS011;69867;47.074;15.404;2023-10-09T08:41:36;4.63;;;1.20;;
80536;SDS011;69867;47.074;15.404;2023-10-09T08:44:03;3.60;;;1.27;;
80536;SDS011;69867;47.074;15.404;2023-10-09T08:46:29;2.88;;;1.40;;
80536;SDS011;69867;47.074;15.404;2023-10-09T08:48:56;3.55;;;1.17;;
80536;SDS011;69867;47.074;15.404;2023-10-09T08:51:23;4.55;;;1.38;;
80536;SDS011;69867;47.074;15.404;2023-10-09T08:53:50;3.05;;;1.30;;
80536;SDS011;69867;47.074;15.404;2023-10-09T08:56:16;4.55;;;1.40;;
80536;SDS011;69867;47.074;15.404;2023-10-09T08:58:42;4.53;;;1.63;;
80536;SDS011;69867;47.074;15.404;2023-10-09T09:01:07;7.82;;;1.50;;
80536;SDS011;69867;47.074;15.404;2023-10-09T09:03:40;4.60;;;1.90;;
80536;SDS011;69867;47.074;15.404;2023-10-09T09:06:06;6.07;;;2.30;;
80536;SDS011;69867;47.074;15.404;2023-10-09T09:08:32;5.43;;;1.92;;
80536;SDS011;69867;47.074;15.404;2023-10-09T09:11:02;3.50;;;1.65;;
80536;SDS011;69867;47.074;15.404;2023-10-09T09:13:29;4.85;;;1.60;;
80536;SDS011;69867;47.074;15.404;2023-10-09T09:15:54;4.50;;;1.83;;
80536;SDS011;69867;47.074;15.404;2023-10-09T09:18:19;3.83;;;1.30;;
80536;SDS011;69867;47.074;15.404;2023-10-09T09:20:45;4.18;;;1.63;;
80536;SDS011;69867;47.074;15.404;2023-10-09T09:23:10;4.55;;;2.08;;
80536;SDS011;69867;47.074;15.404;2023-10-09T09:25:40;5.13;;;1.45;;
80536;SDS011;69867;47.074;15.404;2023-10-09T09:28:12;7.20;;;2.15;;
80536;SDS011;69867;47.074;15.404;2023-10-09T09:30:38;4.40;;;1.98;;
80536;SDS011;69867;47.074;15.404;2023-10-09T09:36:02;3.50;;;1.50;;
80536;SDS011;69867;47.074;15.404;2023-10-09T09:38:28;3.40;;;1.45;;
80536;SDS011;69867;47.074;15.404;2023-10-09T09:40:57;5.60;;;2.13;;
80536;SDS011;69867;47.074;15.404;2023-10-09T09:43:23;3.95;;;1.80;;
80536;SDS011;69867;47.074;15.404;2023-10-09T09:45:49;5.05;;;1.65;;
80536;SDS011;69867;47.074;15.404;2023-10-09T09:48:15;4.28;;;1.40;;
80536;SDS011;69867;47.074;15.404;2023-10-09T09:50:41;3.05;;;1.35;;
80536;SDS011;69867;47.074;15.404;2023-10-09T09:53:07;5.13;;;1.60;;
80536;SDS011;69867;47.074;15.404;2023-10-09T09:55:33;4.28;;;2.00;;
80536;SDS011;69867;47.074;15.404;2023-10-09T09:57:59;4.88;;;1.38;;
80536;SDS011;69867;47.074;15.404;2023-10-09T10:00:31;4.68;;;1.77;;
80536;SDS011;69867;47.074;15.404;2023-10-09T10:03:02;5.95;;;1.73;;
80536;SDS011;69867;47.074;15.404;2023-10-09T10:05:32;4.30;;;1.63;;
80536;SDS011;69867;47.074;15.404;2023-10-09T10:07:59;4.75;;;1.77;;
80536;SDS011;69867;47.074;15.404;2023-10-09T10:10:34;3.70;;;1.33;;
80536;SDS011;69867;47.074;15.404;2023-10-09T10:13:00;5.65;;;1.42;;
80536;SDS011;69867;47.074;15.404;2023-10-09T10:16:11;3.95;;;1.13;;
80536;SDS011;69867;47.074;15.404;2023-10-09T10:18:24;7.28;;;1.75;;
80536;SDS011;69867;47.074;15.404;2023-10-09T10:23:33;4.68;;;1.08;;
80536;SDS011;69867;47.074;15.404;2023-10-09T10:26:17;3.88;;;1.40;;
80536;SDS011;69867;47.074;15.404;2023-10-09T10:28:43;3.50;;;1.05;;
80536;SDS011;69867;47.074;15.404;2023-10-09T10:31:09;6.97;;;1.70;;
80536;SDS011;69867;47.074;15.404;2023-10-09T10:36:18;5.20;;;1.40;;
80536;SDS011;69867;47.074;15.404;2023-10-09T10:38:43;4.88;;;1.65;;
80536;SDS011;69867;47.074;15.404;2023-10-09T10:43:44;3.70;;;1.42;;
80536;SDS011;69867;47.074;15.404;2023-10-09T10:46:10;4.70;;;2.03;;
80536;SDS011;69867;47.074;15.404;2023-10-09T10:48:35;5.15;;;1.60;;
80536;SDS011;69867;47.074;15.404;2023-10-09T10:51:01;2.88;;;1.38;;
80536;SDS011;69867;47.074;15.404;2023-10-09T10:53:26;5.55;;;1.30;;
80536;SDS011;69867;47.074;15.404;2023-10-09T10:55:55;8.80;;;1.38;;
80536;SDS011;69867;47.074;15.404;2023-10-09T10:58:24;5.32;;;1.38;;
80536;SDS011;69867;47.074;15.404;2023-10-09T11:00:55;4.35;;;1.27;;
80536;SDS011;69867;47.074;15.404;2023-10-09T11:03:20;6.65;;;1.52;;
80536;SDS011;69867;47.074;15.404;2023-10-09T11:05:46;4.90;;;1.48;;
80536;SDS011;69867;47.074;15.404;2023-10-09T11:08:11;4.20;;;1.48;;
80536;SDS011;69867;47.074;15.404;2023-10-09T11:10:37;5.00;;;1.35;;
80536;SDS011;69867;47.074;15.404;2023-10-09T11:13:02;5.95;;;2.10;;
80536;SDS011;69867;47.074;15.404;2023-10-09T11:15:32;4.30;;;1.73;;
80536;SDS011;69867;47.074;15.404;2023-10-09T11:17:59;6.38;;;1.85;;
80536;SDS011;69867;47.074;15.404;2023-10-09T11:20:24;5.72;;;1.60;;
80536;SDS011;69867;47.074;15.404;2023-10-09T11:22:50;4.70;;;1.38;;
80536;SDS011;69867;47.074;15.404;2023-10-09T11:25:16;3.42;;;1.40;;
80536;SDS011;69867;47.074;15.404;2023-10-09T11:27:42;5.03;;;1.88;;
80536;SDS011;69867;47.074;15.404;2023-10-09T11:30:08;3.53;;;1.35;;
80536;SDS011;69867;47.074;15.404;2023-10-09T11:32:35;2.60;;;1.30;;
80536;SDS011;69867;47.074;15.404;2023-10-09T11:35:19;5.22;;;1.40;;
80536;SDS011;69867;47.074;15.404;2023-10-09T11:37:44;2.95;;;0.90;;
80536;SDS011;69867;47.074;15.404;2023-10-09T11:40:32;4.43;;;1.10;;
80536;SDS011;69867;47.074;15.404;2023-10-09T11:43:01;3.85;;;1.23;;
80536;SDS011;69867;47.074;15.404;2023-10-09T11:45:27;5.15;;;1.60;;
80536;SDS011;69867;47.074;15.404;2023-10-09T11:47:53;5.03;;;1.70;;
80536;SDS011;69867;47.074;15.404;2023-10-09T11:50:18;4.15;;;1.42;;
80536;SDS011;69867;47.074;15.404;2023-10-09T11:52:59;5.65;;;2.25;;
80536;SDS011;69867;47.074;15.404;2023-10-09T11:55:24;5.68;;;1.70;;
80536;SDS011;69867;47.074;15.404;2023-10-09T11:57:49;3.42;;;1.40;;
80536;SDS011;69867;47.074;15.404;2023-10-09T12:00:15;4.72;;;2.08;;
80536;SDS011;69867;47.074;15.404;2023-10-09T12:02:40;4.95;;;1.92;;
80536;SDS011;69867;47.074;15.404;2023-10-09T12:05:06;6.05;;;1.95;;
80536;SDS011;69867;47.074;15.404;2023-10-09T12:07:31;4.38;;;1.90;;
80536;SDS011;69867;47.074;15.404;2023-10-09T12:09:56;4.43;;;1.48;;
80536;SDS011;69867;47.074;15.404;2023-10-09T12:12:22;6.32;;;2.20;;
80536;SDS011;69867;47.074;15.404;2023-10-09T12:14:47;5.32;;;1.58;;
80536;SDS011;69867;47.074;15.404;2023-10-09T12:17:13;7.28;;;2.25;;
80536;SDS011;69867;47.074;15.404;2023-10-09T12:19:38;9.02;;;1.77;;
80536;SDS011;69867;47.074;15.404;2023-10-09T12:22:07;6.13;;;1.75;;
80536;SDS011;69867;47.074;15.404;2023-10-09T12:24:33;7.70;;;2.22;;
80536;SDS011;69867;47.074;15.404;2023-10-09T12:26:59;4.43;;;1.80;;
80536;SDS011;69867;47.074;15.404;2023-10-09T12:29:25;4.85;;;1.73;;
80536;SDS011;69867;47.074;15.404;2023-10-09T12:31:51;5.15;;;2.53;;
80536;SDS011;69867;47.074;15.404;2023-10-09T12:34:16;4.85;;;1.92;;
80536;SDS011;69867;47.074;15.404;2023-10-09T12:36:50;5.28;;;1.95;;
80536;SDS011;69867;47.074;15.404;2023-10-09T12:39:15;4.47;;;1.75;;
80536;SDS011;69867;47.074;15.404;2023-10-09T12:41:41;4.15;;;1.77;;
80536;SDS011;69867;47.074;15.404;2023-10-09T12:44:06;5.95;;;1.50;;
80536;SDS011;69867;47.074;15.404;2023-10-09T12:46:31;4.78;;;1.83;;
80536;SDS011;69867;47.074;15.404;2023-10-09T12:48:57;5.63;;;1.48;;
80536;SDS011;69867;47.074;15.404;2023-10-09T12:51:22;7.80;;;3.20;;
80536;SDS011;69867;47.074;15.404;2023-10-09T12:53:48;8.80;;;3.75;;
80536;SDS011;69867;47.074;15.404;2023-10-09T12:56:14;7.35;;;3.60;;
80536;SDS011;69867;47.074;15.404;2023-10-09T12:58:39;8.23;;;3.28;;
80536;SDS011;69867;47.074;15.404;2023-10-09T13:01:05;8.93;;;2.53;;
80536;SDS011;69867;47.074;15.404;2023-10-09T13:03:30;5.55;;;1.92;;
80536;SDS011;69867;47.074;15.404;2023-10-09T13:05:55;6.30;;;2.03;;
80536;SDS011;69867;47.074;15.404;2023-10-09T13:08:25;4.30;;;1.88;;
80536;SDS011;69867;47.074;15.404;2023-10-09T13:10:52;13.23;;;5.65;;
80536;SDS011;69867;47.074;15.404;2023-10-09T13:13:17;8.88;;;3.95;;
80536;SDS011;69867;47.074;15.404;2023-10-09T13:15:42;6.25;;;3.03;;
80536;SDS011;69867;47.074;15.404;2023-10-09T13:18:08;6.03;;;2.20;;
80536;SDS011;69867;47.074;15.404;2023-10-09T13:20:33;5.07;;;1.80;;
80536;SDS011;69867;47.074;15.404;2023-10-09T13:22:58;5.88;;;2.00;;
80536;SDS011;69867;47.074;15.404;2023-10-09T13:25:24;9.27;;;2.40;;
80536;SDS011;69867;47.074;15.404;2023-10-09T13:27:49;7.65;;;1.80;;
80536;SDS011;69867;47.074;15.404;2023-10-09T13:30:15;6.03;;;1.70;;
80536;SDS011;69867;47.074;15.404;2023-10-09T13:32:40;4.55;;;1.77;;
80536;SDS011;69867;47.074;15.404;2023-10-09T13:35:06;6.55;;;1.92;;
80536;SDS011;69867;47.074;15.404;2023-10-09T13:37:31;5.95;;;1.88;;
80536;SDS011;69867;47.074;15.404;2023-10-09T13:39:57;7.97;;;2.22;;
80536;SDS011;69867;47.074;15.404;2023-10-09T13:42:22;5.72;;;1.73;;
80536;SDS011;69867;47.074;15.404;2023-10-09T13:44:48;4.50;;;1.88;;
80536;SDS011;69867;47.074;15.404;2023-10-09T13:47:13;8.45;;;1.80;;
80536;SDS011;69867;47.074;15.404;2023-10-09T13:49:39;5.68;;;1.77;;
80536;SDS011;69867;47.074;15.404;2023-10-09T13:52:04;6.28;;;1.80;;
80536;SDS011;69867;47.074;15.404;2023-10-09T13:54:30;6.05;;;1.70;;
80536;SDS011;69867;47.074;15.404;2023-10-09T13:56:56;6.32;;;2.05;;
80536;SDS011;69867;47.074;15.404;2023-10-09T13:59:21;8.98;;;2.35;;
80536;SDS011;69867;47.074;15.404;2023-10-09T14:01:47;5.25;;;1.70;;
80536;SDS011;69867;47.074;15.404;2023-10-09T14:04:13;5.07;;;1.75;;
80536;SDS011;69867;47.074;15.404;2023-10-09T14:06:39;5.40;;;1.73;;
80536;SDS011;69867;47.074;15.404;2023-10-09T14:09:04;6.07;;;2.70;;
80536;SDS011;69867;47.074;15.404;2023-10-09T14:11:30;7.13;;;2.40;;
80536;SDS011;69867;47.074;15.404;2023-10-09T14:13:56;7.95;;;2.13;;
80536;SDS011;69867;47.074;15.404;2023-10-09T14:16:21;6.22;;;1.90;;
80536;SDS011;69867;47.074;15.404;2023-10-09T14:18:47;6.60;;;2.00;;
80536;SDS011;69867;47.074;15.404;2023-10-09T14:21:12;8.68;;;1.88;;
80536;SDS011;69867;47.074;15.404;2023-10-09T14:23:37;7.07;;;1.75;;
80536;SDS011;69867;47.074;15.404;2023-10-09T14:26:03;7.28;;;1.92;;
80536;SDS011;69867;47.074;15.404;2023-10-09T14:28:28;6.57;;;2.08;;
80536;SDS011;69867;47.074;15.404;2023-10-09T14:30:53;4.93;;;2.20;;
80536;SDS011;69867;47.074;15.404;2023-10-09T14:33:18;3.88;;;1.45;;
80536;SDS011;69867;47.074;15.404;2023-10-09T14:35:44;5.28;;;1.98;;
80536;SDS011;69867;47.074;15.404;2023-10-09T14:38:09;5.47;;;1.67;;
80536;SDS011;69867;47.074;15.404;2023-10-09T14:40:35;6.45;;;1.92;;
80536;SDS011;69867;47.074;15.404;2023-10-09T14:43:00;6.15;;;2.10;;